Time;durP1;ratioP1;P1;durP2;ratioP2;P2;SDS_P1;SDS_P2;PMS_P1;PMS_P2;Temp;Humidity;BMP_temperature;BMP_pressure;BME280_temperature;BME280_humidity;BME280_pressure;Samples;Min_cycle;Max_cycle;Signal;HPM_P1;HPM_P2
2023/12/04 00:02:17;;;;;;;53.00;26.35;;;;;;;;;;4957356;28;20039;-83
2023/12/04 00:04:43;;;;;;;50.05;25.52;;;;;;;;;;4989199;28;20145;-83
2023/12/04 00:07:09;;;;;;;53.13;26.73;;;;;;;;;;4975241;28;20038;-81
2023/12/04 00:09:35;;;;;;;52.28;27.38;;;;;;;;;;4972395;28;20126;-81
2023/12/04 00:12:01;;;;;;;52.15;27.98;;;;;;;;;;4974786;28;20526;-81
2023/12/04 00:14:27;;;;;;;58.92;27.05;;;;;;;;;;4972872;28;20046;-80
2023/12/04 00:16:53;;;;;;;57.17;27.55;;;;;;;;;;4974741;28;20062;-81
2023/12/04 00:19:19;;;;;;;52.50;24.63;;;;;;;;;;4959786;28;20201;-80
2023/12/04 00:21:46;;;;;;;63.00;25.85;;;;;;;;;;4954675;28;20046;-80
2023/12/04 00:24:13;;;;;;;46.30;23.10;;;;;;;;;;4970862;28;20050;-80
2023/12/04 00:26:39;;;;;;;48.00;25.17;;;;;;;;;;4979211;28;20034;-79
2023/12/04 00:29:05;;;;;;;52.08;25.40;;;;;;;;;;4986073;28;20054;-80
2023/12/04 00:31:31;;;;;;;47.75;26.92;;;;;;;;;;4985472;28;20077;-79
2023/12/04 00:33:57;;;;;;;50.42;25.67;;;;;;;;;;4971316;28;20050;-80
2023/12/04 00:36:23;;;;;;;40.67;23.90;;;;;;;;;;4951144;28;20050;-80
2023/12/04 00:38:49;;;;;;;51.80;27.50;;;;;;;;;;4986956;28;20042;-80
2023/12/04 00:41:16;;;;;;;49.85;25.10;;;;;;;;;;5000514;28;20188;-80
2023/12/04 00:43:42;;;;;;;48.95;26.17;;;;;;;;;;5001147;28;20414;-80
2023/12/04 00:46:08;;;;;;;44.05;24.15;;;;;;;;;;4970541;28;20197;-81
2023/12/04 00:48:34;;;;;;;45.25;24.67;;;;;;;;;;4988803;28;20038;-80
2023/12/04 00:51:00;;;;;;;44.85;23.30;;;;;;;;;;4990821;28;20406;-80
2023/12/04 00:53:26;;;;;;;42.78;24.60;;;;;;;;;;5001284;28;20050;-80
2023/12/04 00:55:52;;;;;;;44.85;24.23;;;;;;;;;;4988868;28;20052;-80
2023/12/04 00:58:18;;;;;;;53.72;26.67;;;;;;;;;;5002734;28;20100;-80
2023/12/04 01:00:44;;;;;;;42.30;24.70;;;;;;;;;;4970813;28;20050;-80
2023/12/04 01:03:10;;;;;;;46.45;27.13;;;;;;;;;;4971999;28;20046;-79
2023/12/04 01:05:36;;;;;;;48.20;26.35;;;;;;;;;;4965466;28;20049;-79
2023/12/04 01:08:02;;;;;;;48.50;24.48;;;;;;;;;;4986110;28;20058;-79
2023/12/04 01:10:28;;;;;;;46.65;25.42;;;;;;;;;;4984960;28;20051;-79
2023/12/04 01:12:54;;;;;;;50.42;26.40;;;;;;;;;;5001737;28;20120;-79
2023/12/04 01:15:20;;;;;;;55.03;27.10;;;;;;;;;;4970695;28;20046;-79
2023/12/04 01:17:46;;;;;;;55.05;26.83;;;;;;;;;;4984381;28;20124;-80
2023/12/04 01:20:13;;;;;;;56.22;29.27;;;;;;;;;;4970607;28;20070;-80
2023/12/04 01:22:39;;;;;;;56.08;27.42;;;;;;;;;;5002582;28;21319;-80
2023/12/04 01:25:05;;;;;;;62.33;28.90;;;;;;;;;;5002364;28;20435;-80
2023/12/04 01:27:31;;;;;;;71.03;32.25;;;;;;;;;;4981260;28;20138;-79
2023/12/04 01:29:57;;;;;;;71.85;33.75;;;;;;;;;;4970045;28;21731;-79
2023/12/04 01:32:23;;;;;;;68.40;30.48;;;;;;;;;;5000779;28;20042;-81
2023/12/04 01:34:50;;;;;;;80.10;36.15;;;;;;;;;;4985193;28;20042;-81
2023/12/04 01:37:16;;;;;;;84.82;35.13;;;;;;;;;;5002842;28;20042;-85
2023/12/04 01:39:42;;;;;;;84.88;35.15;;;;;;;;;;4987005;28;20104;-84
2023/12/04 01:42:08;;;;;;;91.15;31.83;;;;;;;;;;4970880;28;20047;-85
2023/12/04 01:44:37;;;;;;;90.22;35.78;;;;;;;;;;4987606;28;20141;-84
2023/12/04 01:47:04;;;;;;;98.95;35.63;;;;;;;;;;4970105;28;20038;-83
2023/12/04 01:49:30;;;;;;;86.43;35.55;;;;;;;;;;4959062;28;20049;-84
2023/12/04 01:51:57;;;;;;;88.47;37.05;;;;;;;;;;4974444;28;20053;-84
2023/12/04 01:54:23;;;;;;;97.93;36.90;;;;;;;;;;4974282;28;20061;-83
2023/12/04 01:56:49;;;;;;;97.47;34.78;;;;;;;;;;4969354;28;20110;-84
2023/12/04 01:59:17;;;;;;;100.75;38.60;;;;;;;;;;4988220;28;20045;-84
2023/12/04 02:01:43;;;;;;;104.95;38.40;;;;;;;;;;4985312;28;20127;-84
2023/12/04 02:04:09;;;;;;;106.75;35.30;;;;;;;;;;5003955;28;20558;-84
2023/12/04 02:06:35;;;;;;;103.75;38.03;;;;;;;;;;4999606;28;20034;-85
2023/12/04 02:09:02;;;;;;;100.78;36.33;;;;;;;;;;4971378;28;20041;-85
2023/12/04 02:11:28;;;;;;;102.28;35.08;;;;;;;;;;5001054;28;20054;-81
2023/12/04 02:13:54;;;;;;;109.00;37.67;;;;;;;;;;4986046;28;20038;-85
2023/12/04 02:16:20;;;;;;;97.18;34.88;;;;;;;;;;4954925;28;20117;-85
2023/12/04 02:18:46;;;;;;;91.40;30.75;;;;;;;;;;4989930;28;20405;-85
2023/12/04 02:21:12;;;;;;;105.43;41.25;;;;;;;;;;5000891;28;20050;-84
2023/12/04 02:23:38;;;;;;;103.30;39.63;;;;;;;;;;4989480;28;20043;-82
2023/12/04 02:26:14;;;;;;;108.85;38.28;;;;;;;;;;4970038;28;20045;-84
2023/12/04 02:28:41;;;;;;;109.20;38.60;;;;;;;;;;4968674;28;20487;-85
2023/12/04 02:31:07;;;;;;;101.80;36.50;;;;;;;;;;4993964;28;20048;-84
2023/12/04 02:33:35;;;;;;;106.93;38.47;;;;;;;;;;4986068;28;20073;-84
2023/12/04 02:36:02;;;;;;;89.88;32.33;;;;;;;;;;4970561;28;20136;-83
2023/12/04 02:38:28;;;;;;;102.97;37.13;;;;;;;;;;4970749;28;20047;-85
2023/12/04 02:40:54;;;;;;;101.28;37.97;;;;;;;;;;4970045;28;20129;-84
2023/12/04 02:43:20;;;;;;;100.38;37.05;;;;;;;;;;4983733;28;20165;-86
2023/12/04 02:45:47;;;;;;;99.25;34.63;;;;;;;;;;4973122;28;20097;-84
2023/12/04 02:48:17;;;;;;;117.20;39.47;;;;;;;;;;4968154;28;20034;-80
2023/12/04 02:50:43;;;;;;;103.50;33.05;;;;;;;;;;5001850;28;20046;-81
2023/12/04 02:53:09;;;;;;;105.53;34.85;;;;;;;;;;5001267;28;20153;-80
2023/12/04 02:55:35;;;;;;;108.43;35.47;;;;;;;;;;4967198;28;20034;-81
2023/12/04 02:58:01;;;;;;;109.45;35.08;;;;;;;;;;4983627;28;20060;-82
2023/12/04 03:00:27;;;;;;;103.15;34.83;;;;;;;;;;4981532;28;20131;-80
2023/12/04 03:02:53;;;;;;;103.97;31.83;;;;;;;;;;4968083;28;20094;-78
2023/12/04 03:05:20;;;;;;;104.32;36.90;;;;;;;;;;4987996;28;20048;-81
2023/12/04 03:07:46;;;;;;;112.10;38.35;;;;;;;;;;5001088;28;20892;-80
2023/12/04 03:10:12;;;;;;;116.72;35.78;;;;;;;;;;4973423;28;20399;-80
2023/12/04 03:12:38;;;;;;;112.38;33.58;;;;;;;;;;4984426;28;20065;-80
2023/12/04 03:15:05;;;;;;;114.25;36.42;;;;;;;;;;4988038;28;20034;-80
2023/12/04 03:17:31;;;;;;;126.60;36.45;;;;;;;;;;4984970;28;20125;-81
2023/12/04 03:19:57;;;;;;;114.68;32.83;;;;;;;;;;4971794;28;20042;-80
2023/12/04 03:22:23;;;;;;;108.15;32.30;;;;;;;;;;5002160;28;20830;-79
2023/12/04 03:24:49;;;;;;;99.32;28.30;;;;;;;;;;4984384;28;20080;-79
2023/12/04 03:27:15;;;;;;;104.13;27.67;;;;;;;;;;5003493;28;20038;-80
2023/12/04 03:29:41;;;;;;;98.13;24.02;;;;;;;;;;4952185;28;21409;-79
2023/12/04 03:32:07;;;;;;;106.50;27.92;;;;;;;;;;4984881;28;20129;-78
2023/12/04 03:34:33;;;;;;;113.78;29.23;;;;;;;;;;4968445;28;20125;-78
2023/12/04 03:36:59;;;;;;;96.45;23.65;;;;;;;;;;4973205;28;20038;-82
2023/12/04 03:39:25;;;;;;;120.05;30.17;;;;;;;;;;4968605;28;20045;-83
2023/12/04 03:41:51;;;;;;;87.65;22.33;;;;;;;;;;4987383;28;20477;-83
2023/12/04 03:44:17;;;;;;;115.95;27.85;;;;;;;;;;4969097;28;20046;-82
2023/12/04 03:46:43;;;;;;;104.80;26.80;;;;;;;;;;4988787;28;20049;-84
2023/12/04 03:49:09;;;;;;;118.97;30.40;;;;;;;;;;4969574;28;20114;-84
2023/12/04 03:51:35;;;;;;;106.57;24.40;;;;;;;;;;4986979;28;20105;-84
2023/12/04 03:54:01;;;;;;;108.45;27.88;;;;;;;;;;4973394;28;20477;-83
2023/12/04 03:56:27;;;;;;;112.47;28.45;;;;;;;;;;5005441;28;20039;-84
2023/12/04 03:58:53;;;;;;;115.47;28.15;;;;;;;;;;4975179;28;20072;-79
2023/12/04 04:01:19;;;;;;;122.53;30.63;;;;;;;;;;4971798;28;20145;-80
2023/12/04 04:03:47;;;;;;;117.38;28.27;;;;;;;;;;4972761;28;20042;-80
2023/12/04 04:06:13;;;;;;;108.32;28.10;;;;;;;;;;4970845;28;20097;-80
2023/12/04 04:08:39;;;;;;;108.53;27.75;;;;;;;;;;4972429;28;20915;-80
2023/12/04 04:11:05;;;;;;;124.30;31.17;;;;;;;;;;4988276;28;20418;-79
2023/12/04 04:13:31;;;;;;;111.47;29.90;;;;;;;;;;4974669;28;20502;-79
2023/12/04 04:15:57;;;;;;;128.10;31.73;;;;;;;;;;5007642;28;20125;-79
2023/12/04 04:18:23;;;;;;;116.10;32.08;;;;;;;;;;4973635;28;20048;-80
2023/12/04 04:20:49;;;;;;;113.88;29.05;;;;;;;;;;4955457;28;20092;-80
2023/12/04 04:23:15;;;;;;;125.82;33.53;;;;;;;;;;4972065;28;20567;-80
2023/12/04 04:25:41;;;;;;;121.80;30.38;;;;;;;;;;4986587;28;20498;-80
2023/12/04 04:28:08;;;;;;;110.35;30.73;;;;;;;;;;4973391;28;20418;-80
2023/12/04 04:30:34;;;;;;;125.22;30.52;;;;;;;;;;4971173;28;20042;-81
2023/12/04 04:33:00;;;;;;;120.25;32.13;;;;;;;;;;4974478;28;20038;-81
2023/12/04 04:35:26;;;;;;;139.07;39.42;;;;;;;;;;4986413;28;20076;-79
2023/12/04 04:37:52;;;;;;;104.65;28.98;;;;;;;;;;5004072;28;20042;-82
2023/12/04 04:40:18;;;;;;;127.45;36.45;;;;;;;;;;4957942;28;20074;-80
2023/12/04 04:42:44;;;;;;;114.63;29.88;;;;;;;;;;4956995;28;20442;-79
2023/12/04 04:45:10;;;;;;;115.07;31.58;;;;;;;;;;4985040;28;20054;-80
2023/12/04 04:47:36;;;;;;;121.93;34.90;;;;;;;;;;4987828;28;20149;-85
2023/12/04 04:50:03;;;;;;;114.28;36.20;;;;;;;;;;4959330;28;20121;-83
2023/12/04 04:52:29;;;;;;;112.22;32.35;;;;;;;;;;4971397;28;20130;-85
2023/12/04 04:54:55;;;;;;;102.80;28.75;;;;;;;;;;4971767;28;20077;-85
2023/12/04 04:57:21;;;;;;;115.78;34.35;;;;;;;;;;4971943;28;20038;-84
2023/12/04 04:59:47;;;;;;;112.68;36.05;;;;;;;;;;5002409;28;20057;-85
2023/12/04 05:02:15;;;;;;;104.57;31.75;;;;;;;;;;4986871;28;20097;-83
2023/12/04 05:04:41;;;;;;;114.60;33.85;;;;;;;;;;4970732;28;20055;-84
2023/12/04 05:07:07;;;;;;;118.85;34.22;;;;;;;;;;4997158;28;20042;-80
2023/12/04 05:09:33;;;;;;;112.30;35.08;;;;;;;;;;4967948;28;20073;-79
2023/12/04 05:11:59;;;;;;;112.40;34.13;;;;;;;;;;5001750;28;20096;-78
2023/12/04 05:14:26;;;;;;;115.00;36.00;;;;;;;;;;4975441;28;20047;-78
2023/12/04 05:16:53;;;;;;;103.72;32.97;;;;;;;;;;4972277;28;20046;-78
2023/12/04 05:19:19;;;;;;;102.22;31.35;;;;;;;;;;4990912;28;20108;-78
2023/12/04 05:21:45;;;;;;;94.15;31.45;;;;;;;;;;4969097;28;20082;-78
2023/12/04 05:24:11;;;;;;;107.95;33.17;;;;;;;;;;4969987;28;20046;-79
2023/12/04 05:26:37;;;;;;;111.65;33.88;;;;;;;;;;4986056;28;20594;-78
2023/12/04 05:29:03;;;;;;;107.05;35.90;;;;;;;;;;4954796;28;20720;-78
2023/12/04 05:31:29;;;;;;;113.35;33.38;;;;;;;;;;4988328;28;20128;-80
2023/12/04 05:33:55;;;;;;;99.30;33.53;;;;;;;;;;4987726;28;20105;-78
2023/12/04 05:36:21;;;;;;;100.50;31.63;;;;;;;;;;4981635;28;20034;-79
2023/12/04 05:38:47;;;;;;;100.15;31.02;;;;;;;;;;4971377;28;20048;-78
2023/12/04 05:41:13;;;;;;;107.05;34.05;;;;;;;;;;4989313;28;20050;-79
2023/12/04 05:43:39;;;;;;;96.10;29.83;;;;;;;;;;5006049;28;20129;-78
2023/12/04 05:46:05;;;;;;;101.35;35.75;;;;;;;;;;4968584;28;20096;-78
2023/12/04 05:48:31;;;;;;;97.82;30.90;;;;;;;;;;4983895;28;20462;-78
2023/12/04 05:50:59;;;;;;;109.07;33.30;;;;;;;;;;4987870;28;20049;-78
2023/12/04 05:53:25;;;;;;;109.57;34.67;;;;;;;;;;4971304;28;20053;-78
2023/12/04 05:55:51;;;;;;;103.63;39.13;;;;;;;;;;4952172;28;20081;-79
2023/12/04 05:58:17;;;;;;;91.90;30.92;;;;;;;;;;4970898;28;20050;-79
2023/12/04 06:00:43;;;;;;;98.25;32.45;;;;;;;;;;4969901;28;20054;-79
2023/12/04 06:03:09;;;;;;;93.72;30.98;;;;;;;;;;4956226;28;20089;-80
2023/12/04 06:05:35;;;;;;;103.40;35.17;;;;;;;;;;5003357;28;20034;-80
2023/12/04 06:08:01;;;;;;;101.95;34.55;;;;;;;;;;4967950;28;20046;-79
2023/12/04 06:10:27;;;;;;;101.78;33.22;;;;;;;;;;4988306;28;20069;-79
2023/12/04 06:12:53;;;;;;;100.50;35.17;;;;;;;;;;4971878;28;20042;-80
2023/12/04 06:15:19;;;;;;;93.93;33.80;;;;;;;;;;4972224;28;20097;-79
2023/12/04 06:17:46;;;;;;;87.97;30.83;;;;;;;;;;4989259;28;20482;-80
2023/12/04 06:20:12;;;;;;;98.88;33.33;;;;;;;;;;4974206;28;20688;-80
2023/12/04 06:22:38;;;;;;;89.95;31.15;;;;;;;;;;4971284;28;20034;-80
2023/12/04 06:25:07;;;;;;;89.18;31.48;;;;;;;;;;4962451;28;20121;-79
2023/12/04 06:27:34;;;;;;;87.30;31.33;;;;;;;;;;4971412;28;20113;-80
2023/12/04 06:30:00;;;;;;;90.15;33.08;;;;;;;;;;4973786;28;20479;-80
2023/12/04 06:32:26;;;;;;;80.03;30.70;;;;;;;;;;4976821;28;20045;-80
2023/12/04 06:34:55;;;;;;;81.25;30.27;;;;;;;;;;4987729;28;20037;-80
2023/12/04 06:37:21;;;;;;;83.80;32.28;;;;;;;;;;5004470;28;20042;-80
2023/12/04 06:39:53;;;;;;;79.35;31.13;;;;;;;;;;4971810;28;20483;-80
2023/12/04 06:42:23;;;;;;;89.90;32.15;;;;;;;;;;4988505;28;20506;-80
2023/12/04 06:44:49;;;;;;;75.03;29.23;;;;;;;;;;4988133;28;20550;-80
2023/12/04 06:47:18;;;;;;;80.63;30.38;;;;;;;;;;4968452;28;20498;-80
2023/12/04 06:49:44;;;;;;;70.70;28.40;;;;;;;;;;5003721;28;20166;-80
2023/12/04 06:52:10;;;;;;;73.30;28.48;;;;;;;;;;4991935;28;20042;-79
2023/12/04 06:54:36;;;;;;;67.60;28.98;;;;;;;;;;4954602;28;20039;-81
2023/12/04 06:57:03;;;;;;;70.55;29.73;;;;;;;;;;4989569;28;20080;-81
2023/12/04 06:59:29;;;;;;;66.43;27.80;;;;;;;;;;5003706;28;20062;-80
2023/12/04 07:01:55;;;;;;;71.55;28.77;;;;;;;;;;4969347;28;20038;-80
2023/12/04 07:04:22;;;;;;;72.03;30.00;;;;;;;;;;4986947;28;20077;-79
2023/12/04 07:06:48;;;;;;;67.25;27.25;;;;;;;;;;4989668;28;20035;-77
2023/12/04 07:09:20;;;;;;;70.38;30.20;;;;;;;;;;5001597;28;20070;-83
2023/12/04 07:11:46;;;;;;;70.00;27.52;;;;;;;;;;4955446;28;20050;-81
2023/12/04 07:14:12;;;;;;;63.38;28.00;;;;;;;;;;4970287;28;20221;-84
2023/12/04 07:16:42;;;;;;;65.32;29.17;;;;;;;;;;4969715;28;20073;-84
2023/12/04 07:19:09;;;;;;;65.47;28.88;;;;;;;;;;5001503;28;20047;-83
2023/12/04 07:21:36;;;;;;;70.68;30.75;;;;;;;;;;4971219;28;20046;-81
2023/12/04 07:24:02;;;;;;;56.95;26.63;;;;;;;;;;4984740;28;20485;-84
2023/12/04 07:26:28;;;;;;;61.03;27.92;;;;;;;;;;4969697;28;20044;-83
2023/12/04 07:28:54;;;;;;;56.63;25.80;;;;;;;;;;4973559;28;20042;-79
2023/12/04 07:31:20;;;;;;;63.47;27.35;;;;;;;;;;4975837;28;20053;-78
2023/12/04 07:33:47;;;;;;;53.53;25.90;;;;;;;;;;4969874;28;20069;-78
2023/12/04 07:36:13;;;;;;;56.13;26.63;;;;;;;;;;4987588;28;20038;-79
2023/12/04 07:38:39;;;;;;;58.10;25.13;;;;;;;;;;4993649;28;20100;-80
2023/12/04 07:41:05;;;;;;;62.53;24.83;;;;;;;;;;4972651;28;20522;-79
2023/12/04 07:43:31;;;;;;;64.15;27.83;;;;;;;;;;4974721;28;20112;-79
2023/12/04 07:45:57;;;;;;;67.10;25.05;;;;;;;;;;5004079;28;20042;-83
2023/12/04 07:48:23;;;;;;;52.22;22.52;;;;;;;;;;4963399;28;20042;-82
2023/12/04 07:50:49;;;;;;;52.22;24.50;;;;;;;;;;4987716;28;20042;-83
2023/12/04 07:53:16;;;;;;;55.97;24.05;;;;;;;;;;4975831;28;20042;-82
2023/12/04 07:55:43;;;;;;;49.85;22.27;;;;;;;;;;5007716;28;20085;-82
2023/12/04 07:58:09;;;;;;;52.33;22.23;;;;;;;;;;4991745;28;20042;-84
2023/12/04 08:00:35;;;;;;;55.53;21.52;;;;;;;;;;4963819;28;20045;-83
2023/12/04 08:03:02;;;;;;;51.53;22.50;;;;;;;;;;4976194;28;20039;-83
2023/12/04 08:05:29;;;;;;;49.80;22.48;;;;;;;;;;5003727;28;20035;-82
2023/12/04 08:07:55;;;;;;;46.50;19.60;;;;;;;;;;4987362;28;20509;-83
2023/12/04 08:10:22;;;;;;;46.85;21.20;;;;;;;;;;4993132;28;20043;-83
2023/12/04 08:12:48;;;;;;;49.70;23.20;;;;;;;;;;4988080;28;20520;-83
2023/12/04 08:15:16;;;;;;;44.22;20.85;;;;;;;;;;4991996;28;20042;-82
2023/12/04 08:17:42;;;;;;;47.25;20.30;;;;;;;;;;5005038;28;20131;-86
2023/12/04 08:20:13;;;;;;;47.65;21.85;;;;;;;;;;4990531;28;20057;-86
2023/12/04 08:22:40;;;;;;;43.83;21.55;;;;;;;;;;4982282;28;20052;-85
2023/12/04 08:25:06;;;;;;;44.42;22.08;;;;;;;;;;4976025;28;20130;-87
2023/12/04 08:27:35;;;;;;;42.10;21.38;;;;;;;;;;4975122;28;20042;-86
2023/12/04 08:30:02;;;;;;;45.22;19.77;;;;;;;;;;5008847;28;20053;-86
2023/12/04 08:32:29;;;;;;;42.15;19.58;;;;;;;;;;4981040;28;20045;-86
2023/12/04 08:34:55;;;;;;;42.25;19.05;;;;;;;;;;4978842;28;20089;-87
2023/12/04 08:37:21;;;;;;;42.30;19.92;;;;;;;;;;4992083;28;20038;-87
2023/12/04 08:39:48;;;;;;;38.90;18.88;;;;;;;;;;4989263;28;20479;-86
2023/12/04 08:42:14;;;;;;;38.88;18.30;;;;;;;;;;4973142;28;20050;-86
2023/12/04 08:44:40;;;;;;;34.72;17.85;;;;;;;;;;4990727;28;20121;-86
2023/12/04 08:47:06;;;;;;;40.75;18.70;;;;;;;;;;4992971;28;20069;-87
2023/12/04 08:49:34;;;;;;;32.15;17.10;;;;;;;;;;4992868;28;20042;-87
2023/12/04 08:52:00;;;;;;;38.17;18.65;;;;;;;;;;4975174;28;20176;-86
2023/12/04 08:54:26;;;;;;;34.35;16.42;;;;;;;;;;4991220;28;20048;-87
2023/12/04 08:56:52;;;;;;;34.85;15.82;;;;;;;;;;4975864;28;20057;-88
2023/12/04 08:59:18;;;;;;;29.98;16.20;;;;;;;;;;4991865;28;20045;-88
2023/12/04 09:01:44;;;;;;;31.33;16.90;;;;;;;;;;5007514;28;20042;-87
2023/12/04 09:04:10;;;;;;;26.23;14.52;;;;;;;;;;4959300;28;20045;-87
2023/12/04 09:06:37;;;;;;;30.35;15.77;;;;;;;;;;4961317;28;20046;-89
2023/12/04 09:09:03;;;;;;;28.98;15.68;;;;;;;;;;4993258;28;20490;-86
2023/12/04 09:11:29;;;;;;;39.42;15.82;;;;;;;;;;4973959;28;20042;-86
2023/12/04 09:13:56;;;;;;;30.20;16.17;;;;;;;;;;4975647;28;20046;-86
2023/12/04 09:16:23;;;;;;;31.67;16.95;;;;;;;;;;4991504;28;21104;-86
2023/12/04 09:18:49;;;;;;;31.27;15.68;;;;;;;;;;4990367;28;20057;-86
2023/12/04 09:21:16;;;;;;;39.17;16.33;;;;;;;;;;4973557;28;20033;-87
2023/12/04 09:23:42;;;;;;;28.33;14.68;;;;;;;;;;4975525;28;20396;-87
2023/12/04 09:26:08;;;;;;;27.20;13.60;;;;;;;;;;4976196;28;20640;-87
2023/12/04 09:28:36;;;;;;;24.10;14.05;;;;;;;;;;4976879;28;20035;-87
2023/12/04 09:31:02;;;;;;;22.83;13.82;;;;;;;;;;4990757;28;20456;-85
2023/12/04 09:33:28;;;;;;;26.38;14.45;;;;;;;;;;4957160;28;20054;-85
2023/12/04 09:35:54;;;;;;;26.45;13.50;;;;;;;;;;4972174;28;20046;-86
2023/12/04 09:38:20;;;;;;;27.63;13.43;;;;;;;;;;4991380;28;20057;-84
2023/12/04 09:40:47;;;;;;;31.08;13.77;;;;;;;;;;4978293;28;20185;-86
2023/12/04 09:43:14;;;;;;;29.08;12.38;;;;;;;;;;4981196;28;20042;-84
2023/12/04 09:45:40;;;;;;;23.33;13.20;;;;;;;;;;4987480;28;20041;-85
2023/12/04 09:48:09;;;;;;;24.35;13.25;;;;;;;;;;5005909;28;20100;-85
2023/12/04 09:50:35;;;;;;;26.10;13.52;;;;;;;;;;4973220;28;20220;-84
2023/12/04 09:53:02;;;;;;;22.23;12.55;;;;;;;;;;4990399;28;20049;-85
2023/12/04 09:55:28;;;;;;;27.77;11.68;;;;;;;;;;5005579;28;20053;-84
2023/12/04 09:57:55;;;;;;;24.98;12.77;;;;;;;;;;4989981;28;20089;-84
2023/12/04 10:00:22;;;;;;;20.05;12.10;;;;;;;;;;4973675;28;20042;-85
2023/12/04 10:02:48;;;;;;;22.85;14.05;;;;;;;;;;4989671;28;20038;-85
2023/12/04 10:05:14;;;;;;;26.63;13.55;;;;;;;;;;4989147;28;20511;-84
2023/12/04 10:07:40;;;;;;;24.20;13.07;;;;;;;;;;4986864;28;20133;-85
2023/12/04 10:10:07;;;;;;;24.38;12.88;;;;;;;;;;4991707;28;20042;-85
2023/12/04 10:12:33;;;;;;;25.70;13.27;;;;;;;;;;4989591;28;20088;-84
2023/12/04 10:15:07;;;;;;;22.52;11.88;;;;;;;;;;4992671;28;20038;-85
2023/12/04 10:17:35;;;;;;;20.38;12.15;;;;;;;;;;4975690;28;20057;-85
2023/12/04 10:20:12;;;;;;;22.27;12.43;;;;;;;;;;4963826;28;20130;-81
2023/12/04 10:23:01;;;;;;;26.23;13.63;;;;;;;;;;4983979;28;20030;-80
2023/12/04 10:25:29;;;;;;;21.05;13.48;;;;;;;;;;4993778;28;20054;-80
2023/12/04 10:28:07;;;;;;;23.65;12.98;;;;;;;;;;4965981;28;20040;-81
2023/12/04 10:30:34;;;;;;;21.08;13.18;;;;;;;;;;4981737;28;20053;-80
2023/12/04 10:33:04;;;;;;;20.83;13.02;;;;;;;;;;5004557;28;20042;-80
2023/12/04 10:35:31;;;;;;;19.13;11.68;;;;;;;;;;5004652;28;20124;-80
2023/12/04 10:37:59;;;;;;;22.95;13.50;;;;;;;;;;4988253;28;20034;-80
2023/12/04 10:40:29;;;;;;;24.00;13.30;;;;;;;;;;4972594;28;20054;-82
2023/12/04 10:43:19;;;;;;;18.90;12.70;;;;;;;;;;4983899;28;20054;-81
2023/12/04 10:45:46;;;;;;;23.67;11.52;;;;;;;;;;4968656;28;20402;-80
2023/12/04 10:48:14;;;;;;;21.30;12.68;;;;;;;;;;4967627;28;20038;-81
2023/12/04 10:50:42;;;;;;;23.13;12.35;;;;;;;;;;4985082;28;20630;-82
2023/12/04 10:53:09;;;;;;;27.80;13.27;;;;;;;;;;4988631;28;20125;-82
2023/12/04 10:55:36;;;;;;;18.65;11.82;;;;;;;;;;4988356;28;20056;-80
2023/12/04 10:58:05;;;;;;;23.52;13.32;;;;;;;;;;4981083;28;20047;-80
2023/12/04 11:00:35;;;;;;;20.73;12.23;;;;;;;;;;4989580;28;20093;-81
2023/12/04 11:03:22;;;;;;;22.45;12.43;;;;;;;;;;4992065;28;20038;-81
2023/12/04 11:05:52;;;;;;;19.00;11.57;;;;;;;;;;4977587;28;20097;-80
2023/12/04 11:08:19;;;;;;;20.73;12.18;;;;;;;;;;4977639;28;20126;-80
2023/12/04 11:10:49;;;;;;;22.15;13.38;;;;;;;;;;4993670;28;20085;-80
2023/12/04 11:13:21;;;;;;;23.05;12.43;;;;;;;;;;4984136;28;20044;-81
2023/12/04 11:15:51;;;;;;;17.98;11.52;;;;;;;;;;5006069;28;20049;-81
2023/12/04 11:18:21;;;;;;;19.77;12.30;;;;;;;;;;4991857;28;20042;-80
2023/12/04 11:20:51;;;;;;;18.60;12.18;;;;;;;;;;4975377;28;20042;-81
2023/12/04 11:23:17;;;;;;;23.10;11.98;;;;;;;;;;4973808;28;20053;-80
2023/12/04 11:25:44;;;;;;;18.35;11.63;;;;;;;;;;4976023;28;20490;-80
2023/12/04 11:28:11;;;;;;;17.48;10.25;;;;;;;;;;4992084;28;20112;-80
2023/12/04 11:30:38;;;;;;;21.30;12.13;;;;;;;;;;4981409;28;20049;-81
2023/12/04 11:33:05;;;;;;;20.25;10.90;;;;;;;;;;4977825;28;20049;-81
2023/12/04 11:35:33;;;;;;;20.25;12.70;;;;;;;;;;5007268;28;20438;-80
2023/12/04 11:38:00;;;;;;;18.67;11.95;;;;;;;;;;4992062;28;20050;-81
2023/12/04 11:40:28;;;;;;;19.67;10.95;;;;;;;;;;4991227;28;20058;-81
2023/12/04 11:42:54;;;;;;;17.40;11.52;;;;;;;;;;5004563;28;20046;-80
2023/12/04 11:45:20;;;;;;;20.50;11.80;;;;;;;;;;4987735;28;20126;-81
2023/12/04 11:47:55;;;;;;;19.17;11.73;;;;;;;;;;4975021;28;20038;-81
2023/12/04 11:50:21;;;;;;;20.92;12.63;;;;;;;;;;4992078;28;20042;-80
2023/12/04 11:52:48;;;;;;;19.52;12.88;;;;;;;;;;4990714;28;20046;-79
2023/12/04 11:55:18;;;;;;;18.50;12.07;;;;;;;;;;4991409;28;20056;-79
2023/12/04 11:57:45;;;;;;;20.00;12.50;;;;;;;;;;4992042;28;20042;-79
2023/12/04 12:00:11;;;;;;;20.77;13.55;;;;;;;;;;4972737;28;20049;-79
2023/12/04 12:02:41;;;;;;;18.60;12.68;;;;;;;;;;4974135;28;20034;-80
2023/12/04 12:05:07;;;;;;;18.30;11.43;;;;;;;;;;4990982;28;20046;-79
2023/12/04 12:07:34;;;;;;;17.52;11.98;;;;;;;;;;4975842;28;20030;-80
2023/12/04 12:10:00;;;;;;;21.83;13.30;;;;;;;;;;4974149;28;20197;-81
2023/12/04 12:12:31;;;;;;;17.70;11.98;;;;;;;;;;4970307;28;20050;-81
2023/12/04 12:14:58;;;;;;;19.42;12.77;;;;;;;;;;4988185;28;20049;-81
2023/12/04 12:17:25;;;;;;;18.77;12.80;;;;;;;;;;4954921;28;20043;-81
2023/12/04 12:19:51;;;;;;;31.80;19.88;;;;;;;;;;4972986;28;20038;-81
2023/12/04 12:22:17;;;;;;;23.48;15.45;;;;;;;;;;4989394;28;20137;-81
2023/12/04 12:24:43;;;;;;;19.45;13.30;;;;;;;;;;5007289;28;20038;-81
2023/12/04 12:27:10;;;;;;;19.98;12.13;;;;;;;;;;4956102;28;20446;-81
2023/12/04 12:29:36;;;;;;;16.38;11.52;;;;;;;;;;5005575;28;20069;-81
2023/12/04 12:32:03;;;;;;;18.33;12.27;;;;;;;;;;4974938;28;20498;-81
2023/12/04 12:34:31;;;;;;;20.92;12.23;;;;;;;;;;4973870;28;20042;-80
2023/12/04 12:36:57;;;;;;;23.27;13.10;;;;;;;;;;4974090;28;20046;-81
2023/12/04 12:39:23;;;;;;;23.63;13.90;;;;;;;;;;5005002;28;20402;-80
2023/12/04 12:41:50;;;;;;;19.35;12.45;;;;;;;;;;4956832;28;20105;-81
2023/12/04 12:44:16;;;;;;;23.15;11.60;;;;;;;;;;4992537;28;20054;-81
2023/12/04 12:46:42;;;;;;;18.02;12.57;;;;;;;;;;4973912;28;20053;-81
2023/12/04 12:49:08;;;;;;;16.88;12.07;;;;;;;;;;4975425;28;20396;-80
2023/12/04 12:51:34;;;;;;;19.92;13.18;;;;;;;;;;5007497;28;20046;-80
2023/12/04 12:54:00;;;;;;;22.50;12.82;;;;;;;;;;4972994;28;20038;-80
2023/12/04 12:56:27;;;;;;;21.73;13.30;;;;;;;;;;5007482;28;20569;-81
2023/12/04 12:58:53;;;;;;;20.65;13.88;;;;;;;;;;4990558;28;20405;-81
2023/12/04 13:01:20;;;;;;;21.88;15.00;;;;;;;;;;4991596;28;20089;-80
2023/12/04 13:03:47;;;;;;;26.38;18.20;;;;;;;;;;4998036;28;20072;-80
2023/12/04 13:06:13;;;;;;;30.75;18.63;;;;;;;;;;4976692;28;20048;-81
2023/12/04 13:08:42;;;;;;;31.38;17.63;;;;;;;;;;4970507;28;20053;-80
2023/12/04 13:11:08;;;;;;;25.92;15.80;;;;;;;;;;4988099;28;20084;-81
2023/12/04 13:13:34;;;;;;;16.92;11.88;;;;;;;;;;4989318;28;20046;-80
2023/12/04 13:16:00;;;;;;;19.70;14.00;;;;;;;;;;4973911;28;20507;-81
2023/12/04 13:18:27;;;;;;;17.63;12.38;;;;;;;;;;4975586;28;20050;-80
2023/12/04 13:20:53;;;;;;;21.92;14.43;;;;;;;;;;5005422;28;20047;-78
2023/12/04 13:23:19;;;;;;;19.77;12.57;;;;;;;;;;4987970;28;20078;-79
2023/12/04 13:25:45;;;;;;;18.52;12.30;;;;;;;;;;4989784;28;20125;-79
2023/12/04 13:28:13;;;;;;;23.95;11.70;;;;;;;;;;4990197;28;20089;-79
2023/12/04 13:30:39;;;;;;;23.92;15.30;;;;;;;;;;4972667;28;20050;-79
2023/12/04 13:33:05;;;;;;;19.23;12.48;;;;;;;;;;5004723;28;20041;-79
2023/12/04 13:35:32;;;;;;;21.23;12.02;;;;;;;;;;4974793;28;20042;-79
2023/12/04 13:37:59;;;;;;;19.67;11.45;;;;;;;;;;5000785;28;20061;-79
2023/12/04 13:40:32;;;;;;;20.10;13.43;;;;;;;;;;4977633;28;20137;-79
2023/12/04 13:45:42;;;;;;;22.77;12.27;;;;;;;;;;5000479;28;20046;-79
2023/12/04 13:48:08;;;;;;;20.50;11.68;;;;;;;;;;4971161;28;20034;-79
2023/12/04 13:50:34;;;;;;;18.02;11.18;;;;;;;;;;4968340;28;20042;-79
2023/12/04 13:53:01;;;;;;;18.73;11.30;;;;;;;;;;4973192;28;20074;-79
2023/12/04 14:00:33;;;;;;;19.65;12.50;;;;;;;;;;5004846;28;20061;-79
2023/12/04 14:03:06;;;;;;;19.08;11.18;;;;;;;;;;4973243;28;20038;-79
2023/12/04 14:05:33;;;;;;;17.45;10.77;;;;;;;;;;4988265;28;20529;-79
2023/12/04 14:08:03;;;;;;;20.73;10.38;;;;;;;;;;5009904;28;20046;-79
2023/12/04 14:10:30;;;;;;;18.20;11.55;;;;;;;;;;4975411;28;20042;-79
2023/12/04 14:12:56;;;;;;;15.27;10.38;;;;;;;;;;4987281;28;20049;-80
2023/12/04 14:15:22;;;;;;;14.63;10.40;;;;;;;;;;4987864;28;20077;-79
2023/12/04 14:17:49;;;;;;;14.75;10.30;;;;;;;;;;4987051;28;20418;-80
2023/12/04 14:20:18;;;;;;;14.63;10.15;;;;;;;;;;4971035;28;20050;-79